Time;durP1;ratioP1;P1;durP2;ratioP2;P2;SDS_P1;SDS_P2;PMS_P1;PMS_P2;Temp;Humidity;BMP_temperature;BMP_pressure;BME280_temperature;BME280_humidity;BME280_pressure;Samples;Min_cycle;Max_cycle;Signal;HPM_P1;HPM_P2
2022/10/10 00:01:40;;;;;;;5.57;1.40;;;;;;;9.19;100.00;99794.88;4975431;28;20046;-88
2022/10/10 00:04:07;;;;;;;5.80;1.50;;;;;;;8.99;100.00;99794.94;4969286;28;20409;-89
2022/10/10 00:06:33;;;;;;;6.47;1.63;;;;;;;9.13;100.00;99801.19;4988275;28;20076;-89
2022/10/10 00:09:02;;;;;;;7.97;1.50;;;;;;;9.02;100.00;99808.69;4975453;28;20046;-89
2022/10/10 00:11:29;;;;;;;4.97;1.60;;;;;;;8.78;100.00;99794.16;4968985;28;20050;-88
2022/10/10 00:13:56;;;;;;;8.43;1.50;;;;;;;8.82;100.00;99787.88;4977010;28;20077;-88
2022/10/10 00:16:23;;;;;;;6.13;1.50;;;;;;;8.66;100.00;99785.97;4976877;28;20481;-89
2022/10/10 00:18:50;;;;;;;8.52;2.47;;;;;;;8.77;100.00;99810.75;4976454;28;20062;-88
2022/10/10 00:21:17;;;;;;;9.80;1.70;;;;;;;8.78;100.00;99804.59;4976109;28;20047;-88
2022/10/10 00:23:44;;;;;;;4.90;1.13;;;;;;;8.94;100.00;99826.47;4965945;28;20051;-88
2022/10/10 00:26:11;;;;;;;5.70;1.95;;;;;;;8.73;100.00;99803.03;4986642;28;20087;-88
2022/10/10 00:28:44;;;;;;;8.25;1.38;;;;;;;8.93;100.00;99823.03;4977972;28;20415;-87
2022/10/10 00:31:11;;;;;;;4.95;1.20;;;;;;;8.82;100.00;99819.19;4992565;28;20400;-88
2022/10/10 00:33:38;;;;;;;5.28;1.40;;;;;;;8.75;100.00;99836.91;4976280;28;20054;-88
2022/10/10 00:36:05;;;;;;;4.97;1.40;;;;;;;8.71;100.00;99841.41;4992658;28;20054;-89
2022/10/10 00:38:32;;;;;;;7.53;1.88;;;;;;;8.63;100.00;99829.63;4976800;28;20042;-89
2022/10/10 00:40:59;;;;;;;7.03;1.40;;;;;;;8.51;100.00;99812.72;4976567;28;20409;-90
2022/10/10 00:43:26;;;;;;;4.65;1.40;;;;;;;8.58;100.00;99828.97;4971067;28;20047;-90
2022/10/10 00:45:53;;;;;;;5.75;1.38;;;;;;;8.54;100.00;99847.34;4976028;28;20108;-89
2022/10/10 00:48:28;;;;;;;6.93;2.28;;;;;;;8.55;100.00;99850.81;4976410;28;20489;-90
2022/10/10 00:51:01;;;;;;;6.43;1.60;;;;;;;8.43;100.00;99857.41;4983645;28;20046;-89
2022/10/10 00:53:35;;;;;;;4.68;1.17;;;;;;;8.41;100.00;99854.00;4959630;28;20051;-89
2022/10/10 00:56:03;;;;;;;4.72;2.63;;;;;;;8.49;100.00;99858.91;4967715;28;20050;-90
2022/10/10 00:58:31;;;;;;;8.60;2.22;;;;;;;8.27;100.00;99835.47;4976317;28;20053;-90
2022/10/10 01:00:57;;;;;;;6.07;1.58;;;;;;;8.09;100.00;99837.97;4976904;28;20054;-90
2022/10/10 01:03:24;;;;;;;5.65;1.73;;;;;;;8.15;100.00;99835.06;4966406;28;20046;-89
2022/10/10 01:05:51;;;;;;;3.72;1.23;;;;;;;8.24;100.00;99830.41;4976199;28;20051;-90
2022/10/10 01:08:19;;;;;;;6.43;1.50;;;;;;;8.38;100.00;99869.78;4963864;28;20054;-89
2022/10/10 01:10:55;;;;;;;8.40;1.48;;;;;;;8.28;100.00;99858.03;4971565;28;20050;-89
2022/10/10 01:13:54;;;;;;;6.60;1.42;;;;;;;8.24;100.00;99859.09;4993668;28;20500;-89
2022/10/10 01:16:27;;;;;;;5.22;1.33;;;;;;;8.05;100.00;99846.78;4956929;28;20749;-89
2022/10/10 01:19:19;;;;;;;7.82;1.73;;;;;;;8.11;100.00;99848.28;4962731;28;20058;-89
2022/10/10 01:22:05;;;;;;;4.37;1.30;;;;;;;8.21;100.00;99878.28;4974543;28;20054;-89
2022/10/10 01:24:54;;;;;;;5.93;1.48;;;;;;;7.94;100.00;99872.47;4953432;28;20046;-89
2022/10/10 01:27:54;;;;;;;6.55;1.60;;;;;;;7.83;100.00;99861.63;4969687;28;20047;-89
2022/10/10 01:30:23;;;;;;;6.63;1.77;;;;;;;7.73;100.00;99875.00;4931119;28;20066;-88
2022/10/10 01:32:57;;;;;;;4.53;1.50;;;;;;;7.46;100.00;99876.09;4974357;28;20057;-89
2022/10/10 01:35:42;;;;;;;6.32;1.67;;;;;;;7.36;100.00;99859.97;4973126;28;20050;-89
2022/10/10 01:38:43;;;;;;;6.05;1.60;;;;;;;7.22;100.00;99839.66;4976352;28;20101;-89
2022/10/10 01:41:15;;;;;;;4.85;1.52;;;;;;;7.61;100.00;99891.13;4992787;28;20050;-89
2022/10/10 01:43:42;;;;;;;6.18;1.60;;;;;;;7.30;100.00;99868.88;4975791;28;20046;-89
2022/10/10 01:46:11;;;;;;;8.05;1.88;;;;;;;6.94;100.00;99866.75;4970097;28;20440;-86
2022/10/10 01:48:39;;;;;;;6.82;1.88;;;;;;;6.68;100.00;99866.81;4976440;28;20050;-89
2022/10/10 01:51:27;;;;;;;7.93;1.70;;;;;;;6.90;100.00;99893.75;4975974;28;20120;-89
2022/10/10 01:54:32;;;;;;;4.18;1.20;;;;;;;7.15;100.00;99909.34;4970149;28;20051;-89
2022/10/10 01:57:19;;;;;;;5.43;1.42;;;;;;;7.19;100.00;99908.31;4915656;29;20055;-88
2022/10/10 02:00:03;;;;;;;8.20;1.80;;;;;;;6.93;100.00;99908.44;4916958;29;20103;-88
2022/10/10 02:02:45;;;;;;;5.15;1.60;;;;;;;6.89;100.00;99910.28;4959604;28;20109;-88
2022/10/10 02:05:30;;;;;;;7.50;1.60;;;;;;;6.98;100.00;99914.31;4986345;28;20062;-89
2022/10/10 02:08:09;;;;;;;7.25;1.85;;;;;;;7.21;100.00;99916.94;4975677;28;20069;-88
2022/10/10 02:11:09;;;;;;;6.60;1.67;;;;;;;7.08;100.00;99889.63;4978767;28;20101;-88
2022/10/10 02:14:01;;;;;;;9.57;2.33;;;;;;;7.16;100.00;99936.22;4936818;28;20102;-87
2022/10/10 02:16:36;;;;;;;6.40;1.58;;;;;;;7.15;100.00;99929.31;4997116;28;20094;-89
2022/10/10 02:19:07;;;;;;;5.80;1.48;;;;;;;7.01;100.00;99891.63;4993222;28;20086;-88
2022/10/10 02:21:34;;;;;;;6.85;1.60;;;;;;;7.28;100.00;99916.69;4992770;28;20073;-89
2022/10/10 02:24:04;;;;;;;5.72;1.50;;;;;;;7.36;100.00;99914.66;4962307;28;20050;-88
2022/10/10 02:26:32;;;;;;;4.22;1.20;;;;;;;7.46;100.00;99923.00;4988567;28;20110;-88
2022/10/10 02:29:06;;;;;;;7.75;1.63;;;;;;;7.09;100.00;99865.31;4979265;28;20058;-89
2022/10/10 02:32:16;;;;;;;7.97;1.60;;;;;;;7.54;100.00;99931.34;4995115;28;20058;-89
2022/10/10 02:34:48;;;;;;;4.28;1.20;;;;;;;7.55;100.00;99940.88;4954782;29;20058;-89
2022/10/10 02:37:15;;;;;;;5.20;1.50;;;;;;;7.37;100.00;99926.78;4964055;28;20051;-89
2022/10/10 02:39:47;;;;;;;5.07;1.60;;;;;;;7.36;100.00;99917.25;4961804;28;20050;-89
2022/10/10 02:42:16;;;;;;;8.20;1.55;;;;;;;7.42;100.00;99922.25;4962283;28;20057;-89
2022/10/10 02:44:45;;;;;;;7.53;1.63;;;;;;;7.58;100.00;99945.97;4967059;28;20460;-89
2022/10/10 02:47:12;;;;;;;8.15;1.70;;;;;;;7.52;100.00;99952.22;4992655;28;20050;-89
2022/10/10 02:49:39;;;;;;;6.22;1.60;;;;;;;7.51;100.00;99965.34;4978788;28;20058;-89
2022/10/10 02:52:06;;;;;;;4.95;1.58;;;;;;;7.48;100.00;99948.06;4975139;28;20370;-89
2022/10/10 02:54:33;;;;;;;8.13;1.70;;;;;;;7.31;100.00;99920.06;4979228;28;20109;-89
2022/10/10 02:57:00;;;;;;;6.10;1.52;;;;;;;7.20;100.00;99917.81;4984144;28;20559;-89
2022/10/10 02:59:26;;;;;;;4.72;1.27;;;;;;;7.06;100.00;99901.00;4979404;28;20112;-89
2022/10/10 03:01:53;;;;;;;7.30;1.65;;;;;;;7.35;100.00;99957.25;4978763;28;20108;-88
2022/10/10 03:04:20;;;;;;;5.22;1.60;;;;;;;7.30;100.00;99951.34;4977243;28;20050;-88
2022/10/10 03:06:46;;;;;;;4.60;1.40;;;;;;;7.39;100.00;99959.66;4972905;28;20050;-88
2022/10/10 03:09:13;;;;;;;5.68;1.50;;;;;;;7.42;100.00;99958.72;4979729;28;20054;-86
2022/10/10 03:11:40;;;;;;;9.20;3.05;;;;;;;7.44;100.00;99961.25;4969595;28;20046;-87
2022/10/10 03:14:07;;;;;;;10.23;2.20;;;;;;;7.40;100.00;99958.78;4966000;28;20052;-89
2022/10/10 03:16:33;;;;;;;12.38;2.38;;;;;;;7.13;100.00;99899.88;4984158;28;20062;-89
2022/10/10 03:19:01;;;;;;;11.93;1.65;;;;;;;7.51;100.00;99955.75;4993986;28;20058;-88
2022/10/10 03:21:28;;;;;;;8.57;1.77;;;;;;;7.51;100.00;99947.09;4973563;28;20069;-90
2022/10/10 03:23:56;;;;;;;7.47;1.60;;;;;;;7.43;100.00;99956.94;4969613;28;20424;-89
2022/10/10 03:26:22;;;;;;;7.35;1.50;;;;;;;7.56;100.00;99972.06;4978488;28;20051;-88
2022/10/10 03:28:49;;;;;;;7.85;2.03;;;;;;;7.56;100.00;99974.69;4970600;28;20043;-88
2022/10/10 03:31:16;;;;;;;4.35;1.42;;;;;;;7.53;100.00;99976.56;4977921;28;20058;-88
2022/10/10 03:33:43;;;;;;;5.55;1.52;;;;;;;7.51;100.00;99984.41;4978689;28;20046;-89
2022/10/10 03:36:09;;;;;;;4.95;1.23;;;;;;;7.43;100.00;99978.63;4977337;28;20062;-88
2022/10/10 03:38:38;;;;;;;4.78;1.30;;;;;;;7.36;100.00;99964.13;4973182;28;20054;-89
2022/10/10 03:41:05;;;;;;;6.45;1.50;;;;;;;6.94;100.00;99900.56;4970102;28;20105;-89
2022/10/10 03:43:32;;;;;;;5.32;1.58;;;;;;;7.32;100.00;99983.41;4964321;28;20043;-89
2022/10/10 03:45:58;;;;;;;9.30;2.00;;;;;;;7.25;100.00;99998.38;4977944;28;20531;-89
2022/10/10 03:48:25;;;;;;;4.35;1.27;;;;;;;7.38;100.00;100017.88;4978274;28;20121;-89
2022/10/10 03:50:52;;;;;;;5.78;1.60;;;;;;;7.27;100.00;100004.38;4977376;28;20046;-89
2022/10/10 03:53:18;;;;;;;5.57;1.50;;;;;;;7.06;100.00;99986.91;4977354;28;20050;-88
2022/10/10 03:55:45;;;;;;;7.68;1.40;;;;;;;7.37;100.00;100016.16;4994121;28;20440;-86
2022/10/10 03:58:12;;;;;;;4.88;1.40;;;;;;;7.20;100.00;99989.88;4963436;28;20098;-89
2022/10/10 04:00:39;;;;;;;4.10;1.20;;;;;;;7.32;100.00;100001.63;4972205;28;22077;-86
2022/10/10 04:03:06;;;;;;;4.13;1.38;;;;;;;7.32;100.00;100018.09;4977236;28;20174;-89
2022/10/10 04:05:38;;;;;;;3.38;1.25;;;;;;;7.54;100.00;100038.16;4964851;28;20053;-89
2022/10/10 04:08:05;;;;;;;4.60;1.40;;;;;;;7.26;100.00;100009.63;4964590;28;20057;-89
2022/10/10 04:10:32;;;;;;;5.10;1.48;;;;;;;7.14;100.00;99998.75;4977956;28;20058;-89
2022/10/10 04:12:59;;;;;;;6.30;1.55;;;;;;;7.14;100.00;100006.56;4977798;28;20050;-88
2022/10/10 04:15:26;;;;;;;2.83;1.10;;;;;;;7.21;100.00;100025.44;4966921;28;20073;-88
2022/10/10 04:17:52;;;;;;;4.22;1.15;;;;;;;7.07;100.00;100006.84;4971532;28;20089;-88
2022/10/10 04:20:19;;;;;;;4.05;1.30;;;;;;;6.86;100.00;99987.63;4965760;28;20570;-88
2022/10/10 04:22:46;;;;;;;6.90;1.50;;;;;;;7.09;100.00;100031.06;4974246;28;20051;-89
2022/10/10 04:25:13;;;;;;;3.38;1.10;;;;;;;7.16;100.00;100035.16;4973884;28;20046;-88
2022/10/10 04:27:39;;;;;;;6.03;1.58;;;;;;;7.12;100.00;100029.22;4961828;28;20050;-87
2022/10/10 04:30:07;;;;;;;8.30;1.70;;;;;;;7.02;100.00;100056.44;4970203;28;20054;-87
2022/10/10 04:32:33;;;;;;;4.75;1.58;;;;;;;6.81;100.00;100024.19;4960722;28;20492;-88
2022/10/10 04:35:00;;;;;;;2.75;1.15;;;;;;;6.65;100.00;100029.88;4968219;28;20169;-87
2022/10/10 04:37:27;;;;;;;4.68;1.30;;;;;;;6.88;100.00;100056.06;4993871;28;20050;-88
2022/10/10 04:39:54;;;;;;;4.97;1.50;;;;;;;6.86;100.00;100070.88;4978459;28;20073;-88
2022/10/10 04:42:20;;;;;;;8.18;1.30;;;;;;;6.93;100.00;100068.03;4980182;28;20485;-88
2022/10/10 04:44:47;;;;;;;5.13;1.48;;;;;;;7.04;100.00;100091.94;4966968;28;20445;-88
2022/10/10 04:47:14;;;;;;;6.03;1.40;;;;;;;7.07;100.00;100077.97;4976961;28;20704;-87
2022/10/10 04:49:41;;;;;;;7.13;1.40;;;;;;;6.83;100.00;100048.41;4973135;28;20095;-89
2022/10/10 04:52:09;;;;;;;4.35;1.30;;;;;;;6.95;100.00;100084.44;4973518;28;20062;-89
2022/10/10 04:54:36;;;;;;;4.07;1.60;;;;;;;6.95;100.00;100087.03;4974302;28;20050;-89
2022/10/10 04:57:03;;;;;;;7.60;1.52;;;;;;;7.12;100.00;100096.91;4994244;28;20101;-88
2022/10/10 04:59:30;;;;;;;5.90;1.40;;;;;;;7.12;100.00;100096.03;4985204;28;20257;-88
2022/10/10 05:01:56;;;;;;;6.78;1.42;;;;;;;7.09;100.00;100099.59;4984796;28;20050;-86
2022/10/10 05:04:27;;;;;;;6.13;1.50;;;;;;;7.12;100.00;100096.03;4958611;28;20057;-88
2022/10/10 05:06:54;;;;;;;7.93;1.73;;;;;;;7.18;100.00;100107.09;4978759;28;20492;-89
2022/10/10 05:09:20;;;;;;;5.75;1.63;;;;;;;7.17;100.00;100097.59;4970750;28;20050;-89
2022/10/10 05:11:47;;;;;;;6.78;1.48;;;;;;;7.04;100.00;100088.47;4973934;28;20053;-88
2022/10/10 05:14:14;;;;;;;4.65;1.65;;;;;;;7.00;100.00;100100.75;4970617;28;20051;-89
2022/10/10 05:16:40;;;;;;;7.13;1.77;;;;;;;7.06;100.00;100140.50;4974329;28;20050;-88
2022/10/10 05:19:08;;;;;;;3.95;1.40;;;;;;;6.96;100.00;100117.38;4986283;28;20054;-88
2022/10/10 05:21:34;;;;;;;5.85;1.40;;;;;;;6.80;100.00;100084.94;4975501;28;20456;-88
2022/10/10 05:24:01;;;;;;;7.95;1.63;;;;;;;7.09;100.00;100135.19;4965185;28;20046;-88
2022/10/10 05:26:28;;;;;;;3.55;1.23;;;;;;;6.98;100.00;100117.34;4960220;28;20050;-89
2022/10/10 05:28:55;;;;;;;3.55;1.30;;;;;;;7.02;100.00;100121.53;4969445;28;20054;-87
2022/10/10 05:31:22;;;;;;;5.50;1.52;;;;;;;6.95;100.00;100127.84;4971779;28;20104;-88
2022/10/10 05:33:48;;;;;;;7.32;1.45;;;;;;;6.74;100.00;100119.81;4977711;28;20042;-89
2022/10/10 05:36:15;;;;;;;5.47;1.67;;;;;;;6.87;100.00;100151.50;4975269;28;20102;-88
2022/10/10 05:38:42;;;;;;;4.93;1.65;;;;;;;6.88;100.00;100141.94;4970303;28;20469;-89
2022/10/10 05:41:09;;;;;;;8.70;1.10;;;;;;;6.74;100.00;100125.00;4962531;28;20079;-87
2022/10/10 05:43:36;;;;;;;4.18;1.38;;;;;;;6.89;100.00;100159.25;4970397;28;20050;-88
2022/10/10 05:46:02;;;;;;;4.72;1.27;;;;;;;6.37;100.00;100091.50;4995762;28;20448;-90
2022/10/10 05:48:29;;;;;;;4.20;1.27;;;;;;;6.68;100.00;100159.03;4974915;28;20047;-91
2022/10/10 05:50:58;;;;;;;5.32;1.83;;;;;;;6.56;100.00;100156.81;4978231;28;20073;-91
2022/10/10 05:53:26;;;;;;;4.05;1.35;;;;;;;6.71;100.00;100178.88;4958863;28;20046;-91
2022/10/10 05:55:53;;;;;;;8.88;2.10;;;;;;;6.40;100.00;100148.59;4975604;28;20096;-90
2022/10/10 05:58:19;;;;;;;6.80;1.50;;;;;;;6.33;100.00;100137.53;4979582;28;20054;-91
2022/10/10 06:00:53;;;;;;;5.25;1.60;;;;;;;6.35;100.00;100184.28;4978434;28;20046;-91
2022/10/10 06:03:23;;;;;;;7.68;1.50;;;;;;;6.22;100.00;100179.44;4978249;28;20046;-88
2022/10/10 06:05:50;;;;;;;4.90;1.60;;;;;;;6.03;100.00;100155.72;4976538;28;20092;-88
2022/10/10 06:08:17;;;;;;;3.42;1.25;;;;;;;6.40;100.00;100217.06;4976874;28;20148;-88
2022/10/10 06:10:45;;;;;;;7.60;1.58;;;;;;;6.39;100.00;100228.38;4993627;28;20748;-88
2022/10/10 06:13:14;;;;;;;5.22;1.75;;;;;;;6.43;100.00;100239.53;4992222;28;20050;-88
2022/10/10 06:15:49;;;;;;;4.40;1.67;;;;;;;6.42;100.00;100235.22;4973398;28;20046;-88
2022/10/10 06:18:15;;;;;;;5.32;1.80;;;;;;;6.00;100.00;100179.22;4991867;28;20054;-89
2022/10/10 06:20:42;;;;;;;3.42;1.33;;;;;;;6.17;100.00;100211.66;4976451;28;20113;-89
2022/10/10 06:23:09;;;;;;;6.88;1.60;;;;;;;6.52;100.00;100261.84;4975674;28;20101;-89
2022/10/10 06:25:36;;;;;;;4.85;1.50;;;;;;;6.19;100.00;100238.47;4987542;28;20059;-88
2022/10/10 06:28:13;;;;;;;7.25;1.75;;;;;;;6.16;100.00;100249.81;4978885;28;20133;-88
2022/10/10 06:30:41;;;;;;;3.50;1.30;;;;;;;6.20;100.00;100263.59;4968746;28;20055;-89
2022/10/10 06:33:09;;;;;;;4.63;1.40;;;;;;;6.16;100.00;100264.53;4979126;28;20280;-88
2022/10/10 06:35:43;;;;;;;4.07;1.50;;;;;;;6.22;100.00;100275.63;4978437;28;20050;-88
2022/10/10 06:38:11;;;;;;;5.93;1.40;;;;;;;6.27;100.00;100278.13;4962661;28;20054;-88
2022/10/10 06:40:38;;;;;;;6.25;2.08;;;;;;;6.17;100.00;100263.66;4979264;28;20112;-86
2022/10/10 06:43:10;;;;;;;3.80;1.27;;;;;;;6.37;100.00;100284.75;4975901;28;20050;-85
2022/10/10 06:45:39;;;;;;;5.80;1.80;;;;;;;6.31;100.00;100282.34;4970986;28;20114;-85
2022/10/10 06:48:07;;;;;;;4.15;1.50;;;;;;;6.32;100.00;100260.66;4975166;28;20688;-86
2022/10/10 06:50:34;;;;;;;5.97;1.73;;;;;;;6.12;100.00;100274.16;4993964;28;20054;-85
2022/10/10 06:53:01;;;;;;;4.95;1.80;;;;;;;6.15;100.00;100281.06;4972123;28;20062;-86
2022/10/10 06:55:28;;;;;;;7.13;2.05;;;;;;;6.34;100.00;100289.19;4978589;28;20484;-85
2022/10/10 06:57:56;;;;;;;6.63;1.58;;;;;;;6.38;100.00;100324.63;4958853;28;20047;-86
2022/10/10 07:00:23;;;;;;;4.50;1.60;;;;;;;6.14;100.00;100306.16;4989791;28;20100;-86
2022/10/10 07:02:51;;;;;;;6.65;1.70;;;;;;;6.06;100.00;100295.97;4963846;28;20065;-86
2022/10/10 07:05:18;;;;;;;5.75;1.80;;;;;;;6.39;100.00;100334.13;4972586;28;20062;-86
2022/10/10 07:07:45;;;;;;;4.57;1.52;;;;;;;6.30;100.00;100305.78;4963160;28;20046;-86
2022/10/10 07:10:14;;;;;;;9.93;2.10;;;;;;;6.46;100.00;100297.53;4975887;28;20417;-88
2022/10/10 07:12:41;;;;;;;7.88;1.83;;;;;;;6.51;100.00;100284.38;4978620;28;20065;-86
2022/10/10 07:15:10;;;;;;;6.88;1.80;;;;;;;6.56;100.00;100276.44;4990655;28;20043;-86
2022/10/10 07:17:38;;;;;;;7.25;1.98;;;;;;;6.96;100.00;100346.44;4973825;28;20396;-87
2022/10/10 07:20:05;;;;;;;5.55;1.30;;;;;;;6.71;100.00;100319.38;4967038;28;20081;-85
2022/10/10 07:22:32;;;;;;;5.63;1.60;;;;;;;7.98;100.00;100358.91;4974900;28;20059;-86
2022/10/10 07:24:59;;;;;;;4.22;1.40;;;;;;;8.52;100.00;100351.94;4977569;28;20485;-85
2022/10/10 07:27:26;;;;;;;8.75;2.42;;;;;;;8.45;100.00;100360.88;4967225;28;20057;-86
2022/10/10 07:29:53;;;;;;;7.15;1.63;;;;;;;8.25;100.00;100359.78;4974414;28;20054;-86
2022/10/10 07:32:19;;;;;;;6.68;1.50;;;;;;;8.38;100.00;100317.63;4972652;28;20053;-86
2022/10/10 07:34:46;;;;;;;5.10;1.40;;;;;;;8.77;100.00;100351.91;4967219;28;20441;-86
2022/10/10 07:37:13;;;;;;;4.38;1.40;;;;;;;9.17;100.00;100331.28;4988950;28;20050;-85
2022/10/10 07:39:39;;;;;;;9.82;2.05;;;;;;;9.46;100.00;100358.91;4974674;28;20054;-85
2022/10/10 07:42:06;;;;;;;5.63;1.60;;;;;;;9.56;100.00;100351.53;4995620;28;20058;-86
2022/10/10 07:44:33;;;;;;;8.73;1.80;;;;;;;9.72;100.00;100372.69;4980988;28;20046;-85
2022/10/10 07:47:00;;;;;;;7.20;1.70;;;;;;;9.76;100.00;100359.44;4982133;28;20055;-86
2022/10/10 07:49:27;;;;;;;5.75;1.42;;;;;;;10.05;100.00;100365.25;4968989;28;20057;-86
2022/10/10 07:51:54;;;;;;;7.53;2.28;;;;;;;10.11;100.00;100357.16;4987755;28;20055;-86
2022/10/10 07:54:27;;;;;;;8.25;1.63;;;;;;;10.55;100.00;100377.13;4976877;28;20076;-87
2022/10/10 07:56:54;;;;;;;8.07;1.67;;;;;;;10.68;100.00;100367.84;4973661;28;20054;-87
2022/10/10 07:59:22;;;;;;;11.10;1.73;;;;;;;11.00;100.00;100408.31;4978002;28;20057;-86
2022/10/10 08:01:50;;;;;;;5.95;1.52;;;;;;;11.05;100.00;100367.97;4977990;28;20054;-87
2022/10/10 08:04:17;;;;;;;7.05;1.38;;;;;;;11.43;100.00;100397.66;4975318;28;20053;-87
2022/10/10 08:06:44;;;;;;;8.10;1.67;;;;;;;11.28;100.00;100388.75;4974239;28;20057;-86
2022/10/10 08:09:11;;;;;;;7.07;1.65;;;;;;;11.28;100.00;100387.88;4972823;28;20184;-88
2022/10/10 08:11:37;;;;;;;6.72;1.67;;;;;;;11.14;100.00;100378.03;4994614;28;20451;-87
2022/10/10 08:14:04;;;;;;;6.68;1.50;;;;;;;11.36;100.00;100415.44;4965402;28;20047;-86
2022/10/10 08:16:31;;;;;;;6.47;1.65;;;;;;;11.79;100.00;100433.53;4989337;28;20047;-86
2022/10/10 08:18:58;;;;;;;11.10;1.98;;;;;;;11.95;100.00;100429.31;4979829;28;20057;-87
2022/10/10 08:21:25;;;;;;;6.63;1.40;;;;;;;11.88;100.00;100430.50;4976844;28;20469;-87
2022/10/10 08:23:51;;;;;;;11.57;1.98;;;;;;;11.92;100.00;100450.44;4967607;28;20109;-87
2022/10/10 08:26:21;;;;;;;5.72;1.65;;;;;;;11.45;100.00;100403.66;4975371;28;20046;-87
2022/10/10 08:28:48;;;;;;;5.10;1.50;;;;;;;11.80;100.00;100419.53;4971111;28;20051;-87
2022/10/10 08:31:18;;;;;;;12.23;1.83;;;;;;;12.14;100.00;100478.28;4986393;28;20051;-86
2022/10/10 08:33:46;;;;;;;8.27;1.42;;;;;;;12.26;100.00;100492.59;4970274;28;20424;-87
2022/10/10 08:36:20;;;;;;;5.40;1.30;;;;;;;12.38;100.00;100451.75;4972869;28;20057;-86
2022/10/10 08:38:48;;;;;;;6.90;1.30;;;;;;;12.45;100.00;100475.00;4990976;28;20066;-86
2022/10/10 08:41:38;;;;;;;6.88;1.38;;;;;;;12.65;100.00;100502.91;4994458;28;20050;-86
2022/10/10 08:44:26;;;;;;;8.23;1.95;;;;;;;12.20;100.00;100512.13;4977089;28;20388;-87
2022/10/10 08:47:07;;;;;;;7.13;1.92;;;;;;;12.28;100.00;100482.88;4991905;28;20402;-87
2022/10/10 08:49:39;;;;;;;5.13;1.35;;;;;;;12.75;100.00;100510.31;4975387;28;20046;-86
2022/10/10 08:52:10;;;;;;;8.25;1.50;;;;;;;12.42;100.00;100469.91;4968805;28;20079;-87
2022/10/10 08:54:40;;;;;;;12.15;2.22;;;;;;;11.99;100.00;100474.63;4958574;28;20054;-87
2022/10/10 08:57:26;;;;;;;5.93;1.38;;;;;;;11.91;100.00;100437.41;4976370;28;20114;-87
2022/10/10 09:00:01;;;;;;;8.02;1.45;;;;;;;12.24;100.00;100473.44;4957483;28;20058;-87
2022/10/10 09:02:31;;;;;;;5.35;1.40;;;;;;;12.45;100.00;100517.03;4988614;28;20615;-87
2022/10/10 09:05:25;;;;;;;9.15;1.70;;;;;;;12.63;100.00;100517.06;4970791;28;20137;-86
2022/10/10 09:08:24;;;;;;;8.25;1.60;;;;;;;12.19;100.00;100493.81;4969630;28;20378;-88
2022/10/10 09:11:21;;;;;;;6.55;1.48;;;;;;;12.22;100.00;100483.19;4962238;28;20109;-87
2022/10/10 09:14:25;;;;;;;7.60;1.42;;;;;;;12.19;100.00;100527.94;4918054;28;20051;-86
2022/10/10 09:17:13;;;;;;;7.03;1.75;;;;;;;12.26;100.00;100537.22;4961029;28;20085;-87
2022/10/10 09:20:04;;;;;;;9.15;1.90;;;;;;;12.14;100.00;100534.22;4973633;28;20108;-87
2022/10/10 09:22:39;;;;;;;7.20;1.90;;;;;;;12.06;100.00;100525.06;4964853;28;20051;-87
2022/10/10 09:25:15;;;;;;;8.88;1.90;;;;;;;12.00;100.00;100509.59;4981172;28;20453;-89
2022/10/10 09:28:20;;;;;;;13.05;2.50;;;;;;;12.23;100.00;100519.81;4975290;28;20051;-86
2022/10/10 09:30:55;;;;;;;11.13;2.17;;;;;;;12.41;100.00;100523.38;4980738;28;20054;-86
2022/10/10 09:33:26;;;;;;;8.00;1.75;;;;;;;12.32;100.00;100513.28;4975841;28;20046;-86
2022/10/10 09:35:57;;;;;;;8.55;1.75;;;;;;;12.26;100.00;100503.09;4993095;28;20120;-86
2022/10/10 09:38:32;;;;;;;8.25;2.10;;;;;;;12.56;100.00;100574.28;4959363;28;20106;-86
2022/10/10 09:41:04;;;;;;;10.70;2.30;;;;;;;12.60;100.00;100564.47;4985016;28;20054;-86
2022/10/10 09:43:33;;;;;;;17.35;2.92;;;;;;;12.41;100.00;100519.88;4968112;28;20050;-88
2022/10/10 09:46:00;;;;;;;15.50;2.55;;;;;;;12.49;100.00;100578.13;4974119;28;20121;-86
2022/10/10 09:48:37;;;;;;;14.95;2.70;;;;;;;11.95;100.00;100549.13;4971833;28;20054;-87
2022/10/10 09:51:07;;;;;;;15.25;3.38;;;;;;;12.17;100.00;100561.28;4964513;28;20058;-87
2022/10/10 09:53:34;;;;;;;19.00;3.42;;;;;;;12.05;100.00;100584.53;4960341;28;20061;-87
2022/10/10 09:56:04;;;;;;;22.70;3.40;;;;;;;12.20;100.00;100556.75;4972415;28;20105;-87
2022/10/10 09:58:41;;;;;;;17.30;2.97;;;;;;;12.37;100.00;100547.19;4974467;28;20504;-87
2022/10/10 10:01:17;;;;;;;19.08;3.75;;;;;;;12.51;100.00;100582.38;4987064;28;20055;-87
2022/10/10 10:04:16;;;;;;;15.25;3.08;;;;;;;12.25;100.00;100509.25;4973028;28;20535;-90
2022/10/10 10:07:21;;;;;;;13.18;3.13;;;;;;;12.51;100.00;100508.84;4977784;28;20072;-89
2022/10/10 10:09:53;;;;;;;14.40;3.45;;;;;;;12.73;100.00;100558.53;4982697;28;20051;-89
2022/10/10 10:12:24;;;;;;;11.38;2.72;;;;;;;12.44;100.00;100483.81;4996490;28;20393;-88
2022/10/10 10:14:57;;;;;;;15.45;3.22;;;;;;;13.01;100.00;100566.81;4973344;28;20046;-87
2022/10/10 10:17:24;;;;;;;15.80;3.45;;;;;;;13.13;100.00;100596.91;4968026;28;20054;-84
2022/10/10 10:19:51;;;;;;;17.52;4.47;;;;;;;12.58;100.00;100535.66;4979661;28;20117;-92
2022/10/10 10:22:22;;;;;;;11.32;3.25;;;;;;;12.95;100.00;100570.63;4981904;28;20074;-93
2022/10/10 10:24:52;;;;;;;15.48;3.08;;;;;;;13.29;100.00;100548.69;4978047;28;20046;-93
2022/10/10 10:27:22;;;;;;;16.10;2.85;;;;;;;14.34;96.50;100608.97;4979717;28;20110;-93
2022/10/10 10:29:51;;;;;;;19.80;3.33;;;;;;;14.11;89.85;100596.19;4968400;28;20058;-92
2022/10/10 10:32:57;;;;;;;13.15;3.58;;;;;;;14.28;84.73;100625.06;4976237;28;20054;-95
2022/10/10 10:35:34;;;;;;;13.98;3.15;;;;;;;13.75;83.44;100627.03;4968551;28;20054;-94
2022/10/10 10:38:17;;;;;;;14.43;3.50;;;;;;;13.18;87.75;100619.41;4987947;28;20047;-93
2022/10/10 10:41:22;;;;;;;15.32;3.13;;;;;;;13.19;87.12;100642.13;4988221;28;20054;-94
2022/10/10 10:44:12;;;;;;;18.10;3.60;;;;;;;13.12;86.18;100651.25;4909937;29;20510;-94
2022/10/10 10:46:45;;;;;;;13.43;3.28;;;;;;;13.30;87.37;100646.84;4961539;28;20051;-93
2022/10/10 10:49:34;;;;;;;17.52;3.38;;;;;;;13.36;86.15;100654.44;4988873;28;20069;-95
2022/10/10 10:52:24;;;;;;;15.98;2.90;;;;;;;13.30;86.03;100634.56;4987262;28;20054;-88
2022/10/10 10:55:09;;;;;;;15.32;3.05;;;;;;;13.51;84.97;100649.34;4983730;28;20386;-89
2022/10/10 10:58:09;;;;;;;19.40;3.47;;;;;;;12.93;81.54;100614.50;4967071;28;20477;-90
2022/10/10 11:01:03;;;;;;;17.15;3.70;;;;;;;13.33;81.37;100672.16;4992405;28;20073;-87
2022/10/10 11:03:57;;;;;;;;;;;;;;;13.81;79.33;100666.19;4968825;28;20545;-87
2022/10/10 11:06:55;;;;;;;13.50;2.53;;;;;;;13.36;79.56;100640.47;4998047;28;19976;-89
2022/10/10 11:10:15;;;;;;;14.32;2.75;;;;;;;13.98;74.21;100661.81;4995890;28;20335;-88
2022/10/10 11:12:53;;;;;;;15.38;2.83;;;;;;;13.74;76.57;100632.38;4992191;28;20042;-93
2022/10/10 11:15:26;;;;;;;13.18;2.95;;;;;;;13.58;78.30;100627.06;4969649;28;20058;-89
2022/10/10 11:18:24;;;;;;;12.38;2.85;;;;;;;13.80;73.60;100638.16;4981334;28;20100;-89
2022/10/10 11:20:59;;;;;;;14.35;2.65;;;;;;;13.84;73.98;100646.75;4978730;28;20050;-89
2022/10/10 11:23:32;;;;;;;17.15;3.40;;;;;;;13.64;75.03;100661.78;4968166;28;20062;-91
2022/10/10 11:26:04;;;;;;;18.10;3.22;;;;;;;13.55;76.53;100635.13;4984861;28;20400;-93
2022/10/10 11:29:08;;;;;;;11.05;2.50;;;;;;;13.42;74.90;100635.75;4987059;28;20459;-92
2022/10/10 11:34:16;;;;;;;15.85;3.33;;;;;;;13.76;77.28;100677.88;4979562;28;20065;-91
2022/10/10 11:36:45;;;;;;;17.15;2.95;;;;;;;13.33;73.97;100685.31;4976893;28;20051;-88
2022/10/10 11:39:21;;;;;;;13.95;3.15;;;;;;;12.70;74.11;100603.34;4977358;28;20058;-95
2022/10/10 11:42:00;;;;;;;19.55;3.80;;;;;;;12.67;74.14;100665.69;4970890;28;20054;-92
2022/10/10 11:44:33;;;;;;;14.63;3.63;;;;;;;12.47;75.04;100617.59;4968319;28;20053;-90
2022/10/10 11:47:02;;;;;;;14.20;3.40;;;;;;;13.16;74.54;100702.75;4975682;28;20051;-89
2022/10/10 11:49:35;;;;;;;15.38;3.70;;;;;;;13.36;76.00;100714.09;4956329;28;20055;-91
2022/10/10 11:52:25;;;;;;;20.63;3.45;;;;;;;13.47;73.67;100725.78;4976411;28;20046;-92